createdAt,value
2022-08-22T00:02:23.602Z,20.84
2022-08-22T00:02:42.671Z,22.51
2022-08-22T00:02:52.694Z,23.89
2022-08-22T00:05:17.253Z,20.35
2022-08-22T00:07:45.250Z,21.07
2022-08-22T00:10:28.111Z,21.42
2022-08-22T00:13:20.634Z,21.36
2022-08-22T00:16:16.704Z,20.91
2022-08-22T00:19:16.203Z,21.24
2022-08-22T00:22:15.391Z,20.34
2022-08-22T00:24:59.261Z,20.35
2022-08-22T00:27:38.449Z,21.48
2022-08-22T00:30:17.822Z,21.44
2022-08-22T00:33:01.853Z,21.01
2022-08-22T00:35:53.694Z,21.27
2022-08-22T00:38:35.417Z,20.67
2022-08-22T00:41:44.972Z,20.16
2022-08-22T00:44:58.254Z,21.02
2022-08-22T00:48:10.172Z,20.52
2022-08-22T00:51:01.327Z,20.55
2022-08-22T00:53:42.890Z,20.33
2022-08-22T00:56:47.485Z,20.79
2022-08-22T00:59:29.609Z,21.54
2022-08-22T01:02:24.314Z,20.76
2022-08-22T01:05:10.299Z,20.14
2022-08-22T01:08:29.706Z,20.49
2022-08-22T01:11:30.275Z,20.89
2022-08-22T01:14:34.326Z,20.93
2022-08-22T01:17:29.536Z,20.64
2022-08-22T01:20:27.191Z,21.07
2022-08-22T01:23:18.685Z,19.85
2022-08-22T01:26:06.759Z,20.45
2022-08-22T01:29:28.299Z,19.85
2022-08-22T01:32:56.975Z,19.40
2022-08-22T01:36:10.117Z,19.97
2022-08-22T01:39:02.140Z,20.02
2022-08-22T01:41:59.433Z,19.82
2022-08-22T01:44:32.353Z,19.88
2022-08-22T01:47:01.485Z,19.60
2022-08-22T01:49:44.124Z,19.48
2022-08-22T01:53:02.797Z,20.59
2022-08-22T01:55:42.307Z,20.13
2022-08-22T01:58:32.026Z,19.49
2022-08-22T02:01:10.986Z,19.36
2022-08-22T02:03:51.367Z,19.83
2022-08-22T02:06:33.812Z,20.19
2022-08-22T02:09:28.110Z,19.28
2022-08-22T02:12:22.140Z,20.13
2022-08-22T02:15:21.694Z,19.01
2022-08-22T02:18:06.412Z,19.89
2022-08-22T02:20:48.912Z,19.18
2022-08-22T02:23:49.846Z,19.64
2022-08-22T02:27:04.378Z,19.77
2022-08-22T02:29:50.558Z,19.60
2022-08-22T02:32:48.947Z,19.68
2022-08-22T02:35:40.246Z,19.80
2022-08-22T02:38:52.954Z,19.91
2022-08-22T02:42:07.203Z,19.53
2022-08-22T02:44:50.567Z,19.45
2022-08-22T02:47:35.590Z,19.51
2022-08-22T02:50:39.470Z,18.96
2022-08-22T02:53:49.841Z,19.40
2022-08-22T02:57:06.077Z,19.35
2022-08-22T02:59:38.249Z,18.97
2022-08-22T03:02:46.373Z,19.25
2022-08-22T03:05:37.253Z,18.66
2022-08-22T03:08:28.255Z,18.66
2022-08-22T03:11:23.562Z,18.44
2022-08-22T03:14:55.012Z,19.25
2022-08-22T03:17:38.425Z,19.24
2022-08-22T03:20:13.947Z,18.25
2022-08-22T03:23:05.379Z,18.90
2022-08-22T03:25:38.527Z,18.88
2022-08-22T03:28:37.288Z,18.81
2022-08-22T03:31:18.624Z,18.08
2022-08-22T03:34:06.419Z,18.42
2022-08-22T03:36:35.524Z,18.88
2022-08-22T03:39:35.487Z,18.32
2022-08-22T03:43:14.364Z,18.62
2022-08-22T03:46:30.507Z,18.71
2022-08-22T03:49:10.415Z,17.93
2022-08-22T03:51:56.204Z,18.13
2022-08-22T03:54:58.551Z,18.28
2022-08-22T03:57:37.632Z,17.82
2022-08-22T04:00:57.462Z,17.31
2022-08-22T04:03:56.908Z,17.46
2022-08-22T04:07:06.886Z,17.58
2022-08-22T04:10:07.355Z,18.58
2022-08-22T04:12:52.515Z,18.72
2022-08-22T04:15:40.528Z,17.49
2022-08-22T04:18:23.624Z,17.53
2022-08-22T04:20:56.704Z,17.90
2022-08-22T04:23:57.656Z,18.83
2022-08-22T04:26:56.525Z,18.91
2022-08-22T04:30:05.834Z,17.27
2022-08-22T04:32:50.196Z,17.46
2022-08-22T04:35:29.534Z,17.46
2022-08-22T04:38:12.510Z,17.22
2022-08-22T04:40:53.678Z,17.55
2022-08-22T04:43:39.264Z,17.61
2022-08-22T04:46:41.674Z,16.96
2022-08-22T04:49:39.913Z,17.54
2022-08-22T04:52:18.979Z,18.24
2022-08-22T04:55:11.101Z,18.70
2022-08-22T04:57:56.049Z,17.87
2022-08-22T05:00:23.933Z,18.22
2022-08-22T05:02:56.420Z,18.02
2022-08-22T05:05:38.573Z,17.53
2022-08-22T05:08:09.976Z,18.80
2022-08-22T05:10:47.495Z,21.19
2022-08-22T05:13:22.844Z,21.71
2022-08-22T05:15:56.332Z,22.24
2022-08-22T05:18:42.756Z,21.43
2022-08-22T05:21:13.900Z,21.40
2022-08-22T05:24:04.616Z,21.29
2022-08-22T05:26:40.591Z,23.69
2022-08-22T05:29:10.002Z,24.19
2022-08-22T05:32:03.550Z,23.53
2022-08-22T05:34:40.148Z,24.79
2022-08-22T05:37:22.744Z,25.33
2022-08-22T05:39:58.961Z,26.25
2022-08-22T05:42:33.954Z,25.72
2022-08-22T05:45:03.371Z,25.15
2022-08-22T05:47:55.630Z,24.00
2022-08-22T05:50:52.200Z,25.62
2022-08-22T05:53:37.595Z,26.06
2022-08-22T05:56:18.194Z,27.36
2022-08-22T05:58:51.772Z,27.70
2022-08-22T06:01:38.081Z,28.25
2022-08-22T06:04:31.185Z,27.58
2022-08-22T06:07:14.905Z,24.28
2022-08-22T06:09:48.108Z,24.31
2022-08-22T06:12:44.673Z,24.37
2022-08-22T06:15:20.914Z,23.58
2022-08-22T06:18:05.210Z,23.67
2022-08-22T06:21:01.093Z,24.14
2022-08-22T06:24:02.598Z,24.36
2022-08-22T06:26:36.459Z,24.52
2022-08-22T06:29:07.514Z,24.59
2022-08-22T06:31:48.371Z,24.44
2022-08-22T06:34:25.685Z,24.75
2022-08-22T06:36:56.282Z,24.73
2022-08-22T06:39:42.235Z,25.13
2022-08-22T06:42:23.950Z,24.96
2022-08-22T06:45:09.548Z,24.87
2022-08-22T06:47:50.238Z,24.86
2022-08-22T06:50:35.805Z,24.36
2022-08-22T06:53:29.447Z,24.79
2022-08-22T06:56:03.164Z,24.31
2022-08-22T06:58:52.453Z,25.19
2022-08-22T07:01:39.936Z,24.97
2022-08-22T07:04:10.511Z,24.85
2022-08-22T07:06:50.244Z,25.07
2022-08-22T07:09:25.717Z,25.06
2022-08-22T07:11:56.366Z,25.18
2022-08-22T07:14:44.337Z,25.44
2022-08-22T07:17:28.701Z,25.42
2022-08-22T07:20:24.073Z,25.39
2022-08-22T07:23:08.880Z,25.34
2022-08-22T07:25:55.317Z,25.38
2022-08-22T07:28:51.241Z,25.47
2022-08-22T07:31:54.142Z,25.64
2022-08-22T07:34:38.055Z,25.90
2022-08-22T07:37:21.788Z,25.88
2022-08-22T07:40:00.726Z,25.62
2022-08-22T07:42:49.510Z,25.56
2022-08-22T07:45:32.021Z,25.52
2022-08-22T07:48:26.573Z,25.72
2022-08-22T07:51:01.047Z,26.11
2022-08-22T07:54:00.989Z,25.88
2022-08-22T07:56:38.447Z,25.84
2022-08-22T07:59:20.083Z,25.85
2022-08-22T08:01:53.528Z,26.16
2022-08-22T08:04:39.472Z,25.88
2022-08-22T08:07:14.479Z,26.01
2022-08-22T08:09:49.911Z,25.83
2022-08-22T08:12:22.149Z,26.25
2022-08-22T08:14:53.355Z,26.28
2022-08-22T08:17:32.190Z,26.62
2022-08-22T08:20:08.854Z,26.20
2022-08-22T08:22:38.976Z,26.53
2022-08-22T08:25:08.198Z,26.67
2022-08-22T08:27:57.346Z,26.81
2022-08-22T08:30:40.841Z,26.87
2022-08-22T08:33:26.182Z,26.77
2022-08-22T08:36:25.521Z,26.36
2022-08-22T08:39:28.572Z,27.13
2022-08-22T08:43:11.080Z,26.92
2022-08-22T08:46:14.458Z,27.11
2022-08-22T08:49:06.497Z,27.42
2022-08-22T08:52:18.355Z,27.47
2022-08-22T08:55:42.755Z,27.84
2022-08-22T08:59:01.941Z,27.81
2022-08-22T09:01:56.593Z,27.64
2022-08-22T09:05:20.921Z,27.63
2022-08-22T09:08:27.623Z,27.07
2022-08-22T09:11:31.213Z,28.06
2022-08-22T09:14:53.217Z,27.95
2022-08-22T09:18:08.469Z,28.08
2022-08-22T09:21:30.436Z,28.03
2022-08-22T09:24:40.246Z,28.43
2022-08-22T09:27:36.657Z,28.38
2022-08-22T09:30:13.067Z,28.54
2022-08-22T09:33:08.885Z,28.61
2022-08-22T09:36:03.148Z,28.48
2022-08-22T09:38:38.128Z,28.48
2022-08-22T09:41:54.339Z,28.94
2022-08-22T09:44:46.564Z,27.69
2022-08-22T09:47:39.272Z,28.16
2022-08-22T09:50:30.800Z,28.46
2022-08-22T09:53:34.518Z,28.76
2022-08-22T09:56:26.153Z,29.46
2022-08-22T09:59:06.794Z,28.56
2022-08-22T10:02:14.276Z,28.98
2022-08-22T10:05:05.886Z,29.25
2022-08-22T10:08:12.919Z,29.25
2022-08-22T10:11:11.773Z,28.76
2022-08-22T10:14:02.629Z,29.27
2022-08-22T10:17:14.814Z,29.43
2022-08-22T10:20:02.071Z,29.80
2022-08-22T10:22:49.422Z,29.66
2022-08-22T10:25:16.351Z,29.90
2022-08-22T10:28:22.156Z,30.11
2022-08-22T10:31:08.026Z,28.51
2022-08-22T10:33:59.482Z,28.68
2022-08-22T10:37:02.007Z,30.13
2022-08-22T10:40:02.528Z,29.69
2022-08-22T10:43:13.434Z,29.87
2022-08-22T10:45:46.338Z,30.34
2022-08-22T10:48:35.139Z,29.19
2022-08-22T10:51:24.846Z,28.45
2022-08-22T10:54:26.462Z,30.07
2022-08-22T10:57:12.210Z,29.12
2022-08-22T10:59:56.663Z,29.85
2022-08-22T11:02:53.075Z,30.37
2022-08-22T11:05:37.837Z,30.29
2022-08-22T11:08:25.495Z,29.89
2022-08-22T11:11:43.837Z,29.89
2022-08-22T11:14:24.742Z,29.02
2022-08-22T11:17:27.515Z,29.68
2022-08-22T11:20:32.096Z,29.67
2022-08-22T11:23:34.025Z,28.39
2022-08-22T11:26:35.845Z,28.82
2022-08-22T11:29:26.459Z,28.76
2022-08-22T11:32:30.783Z,28.95
2022-08-22T11:35:14.231Z,28.36
2022-08-22T11:38:32.583Z,28.80
2022-08-22T11:41:52.481Z,28.90
2022-08-22T11:44:50.970Z,29.16
2022-08-22T11:47:28.054Z,29.73
2022-08-22T11:50:19.248Z,30.28
2022-08-22T11:53:07.850Z,30.25
2022-08-22T11:56:21.339Z,30.38
2022-08-22T11:59:22.517Z,30.81
2022-08-22T12:01:59.789Z,31.13
2022-08-22T12:04:43.976Z,30.25
2022-08-22T12:07:18.598Z,30.92
2022-08-22T12:09:50.624Z,31.16
2022-08-22T12:12:42.187Z,31.14
2022-08-22T12:15:53.752Z,31.46
2022-08-22T12:18:26.853Z,32.10
2022-08-22T12:21:21.540Z,32.03
2022-08-22T12:23:55.681Z,31.52
2022-08-22T12:27:10.040Z,31.11
2022-08-22T12:31:00.816Z,30.17
2022-08-22T12:34:02.180Z,30.38
2022-08-22T12:37:03.023Z,30.10
2022-08-22T12:40:17.596Z,29.78
2022-08-22T12:43:10.251Z,30.86
2022-08-22T12:46:12.838Z,31.81
2022-08-22T12:49:21.263Z,32.13
2022-08-22T12:52:12.912Z,31.81
2022-08-22T12:54:58.343Z,30.79
2022-08-22T12:58:01.001Z,32.07
2022-08-22T13:00:45.178Z,31.47
2022-08-22T13:03:34.595Z,31.28
2022-08-22T13:06:42.611Z,31.47
2022-08-22T13:09:30.867Z,32.44
2022-08-22T13:12:25.492Z,32.21
2022-08-22T13:15:11.990Z,31.54
2022-08-22T13:17:44.727Z,32.25
2022-08-22T13:20:32.662Z,31.64
2022-08-22T13:23:12.420Z,31.69
2022-08-22T13:26:16.460Z,31.68
2022-08-22T13:29:26.755Z,31.83
2022-08-22T13:32:03.598Z,31.16
2022-08-22T13:34:45.666Z,30.85
2022-08-22T13:37:24.781Z,30.61
2022-08-22T13:40:00.985Z,30.75
2022-08-22T13:42:33.701Z,32.22
2022-08-22T13:45:27.017Z,30.73
2022-08-22T13:48:09.310Z,30.98
2022-08-22T13:51:14.471Z,31.86
2022-08-22T13:54:01.969Z,32.75
2022-08-22T13:56:47.839Z,32.55
2022-08-22T14:00:07.984Z,31.74
2022-08-22T14:02:58.843Z,30.66
2022-08-22T14:05:54.753Z,32.16
2022-08-22T14:08:41.332Z,30.91
2022-08-22T14:11:55.192Z,31.57
2022-08-22T14:14:34.447Z,31.99
2022-08-22T14:17:02.288Z,32.44
2022-08-22T14:19:53.123Z,32.75
2022-08-22T14:22:31.799Z,32.70
2022-08-22T14:25:24.724Z,31.43
2022-08-22T14:28:06.442Z,32.41
2022-08-22T14:31:00.967Z,31.67
2022-08-22T14:33:40.872Z,32.59
2022-08-22T14:36:17.142Z,32.65
2022-08-22T14:38:57.869Z,33.36
2022-08-22T14:41:52.501Z,33.62
2022-08-22T14:44:36.239Z,33.18
2022-08-22T14:47:32.362Z,33.45
2022-08-22T14:50:45.734Z,33.49
2022-08-22T14:53:23.651Z,33.31
2022-08-22T14:56:13.257Z,33.61
2022-08-22T14:59:07.152Z,33.61
2022-08-22T15:02:07.545Z,33.28
2022-08-22T15:04:49.935Z,33.41
2022-08-22T15:07:32.992Z,32.97
2022-08-22T15:10:25.253Z,33.57
2022-08-22T15:12:59.145Z,33.30
2022-08-22T15:15:54.172Z,33.15
2022-08-22T15:18:28.064Z,32.85
2022-08-22T15:21:21.010Z,32.44
2022-08-22T15:23:55.931Z,32.55
2022-08-22T15:26:36.621Z,33.63
2022-08-22T15:29:23.597Z,33.16
2022-08-22T15:31:59.755Z,33.05
2022-08-22T15:34:32.668Z,33.18
2022-08-22T15:37:17.943Z,32.71
2022-08-22T15:40:11.872Z,32.96
2022-08-22T15:42:50.256Z,32.84
2022-08-22T15:45:30.649Z,33.21
2022-08-22T15:48:04.819Z,32.52
2022-08-22T15:50:41.835Z,32.39
2022-08-22T15:53:14.160Z,31.53
2022-08-22T15:56:13.223Z,31.13
2022-08-22T15:58:50.061Z,31.70
2022-08-22T16:01:25.055Z,32.76
2022-08-22T16:04:12.810Z,33.11
2022-08-22T16:06:53.948Z,32.77
2022-08-22T16:09:53.096Z,32.74
2022-08-22T16:12:44.212Z,32.53
2022-08-22T16:15:54.159Z,32.34
2022-08-22T16:18:39.647Z,32.52
2022-08-22T16:21:14.609Z,32.64
2022-08-22T16:24:00.908Z,32.83
2022-08-22T16:26:30.925Z,33.01
2022-08-22T16:29:07.246Z,32.91
2022-08-22T16:31:38.901Z,32.73
2022-08-22T16:34:18.109Z,31.85
2022-08-22T16:37:03.428Z,32.06
2022-08-22T16:39:49.771Z,31.82
2022-08-22T16:42:22.898Z,32.42
2022-08-22T16:45:05.118Z,31.83
2022-08-22T16:47:32.874Z,32.23
2022-08-22T16:50:27.923Z,32.26
2022-08-22T16:53:08.466Z,31.98
2022-08-22T16:55:36.052Z,31.24
2022-08-22T16:58:17.500Z,31.85
2022-08-22T17:01:08.884Z,32.03
2022-08-22T17:03:54.116Z,31.52
2022-08-22T17:07:03.323Z,32.00
2022-08-22T17:10:14.286Z,31.55
2022-08-22T17:13:12.908Z,31.89
2022-08-22T17:16:17.058Z,32.26
2022-08-22T17:19:25.839Z,32.20
2022-08-22T17:22:11.105Z,31.76
2022-08-22T17:25:21.735Z,32.02
2022-08-22T17:28:34.287Z,31.85
2022-08-22T17:31:43.810Z,31.83
2022-08-22T17:34:35.204Z,31.64
2022-08-22T17:37:23.412Z,31.74
2022-08-22T17:40:22.774Z,31.45
2022-08-22T17:43:27.100Z,31.66
2022-08-22T17:46:29.774Z,31.53
2022-08-22T17:49:11.297Z,31.43
2022-08-22T17:52:13.554Z,31.28
2022-08-22T17:54:50.620Z,31.41
2022-08-22T17:57:48.987Z,30.97
2022-08-22T18:00:37.121Z,30.90
2022-08-22T18:03:29.284Z,30.79
2022-08-22T18:06:19.911Z,30.30
2022-08-22T18:09:15.430Z,30.30
2022-08-22T18:12:02.067Z,30.13
2022-08-22T18:14:47.596Z,30.00
2022-08-22T18:17:33.651Z,29.64
2022-08-22T18:20:17.361Z,29.36
2022-08-22T18:23:21.549Z,29.27
2022-08-22T18:26:44.128Z,29.11
2022-08-22T18:29:18.016Z,29.36
2022-08-22T18:32:19.154Z,28.81
2022-08-22T18:35:05.951Z,28.40
2022-08-22T18:37:34.864Z,28.34
2022-08-22T18:40:50.325Z,27.52
2022-08-22T18:43:48.336Z,27.97
2022-08-22T18:46:38.566Z,28.28
2022-08-22T18:49:31.739Z,28.44
2022-08-22T18:52:19.865Z,28.59
2022-08-22T18:55:27.827Z,28.09
2022-08-22T18:58:24.793Z,27.85
2022-08-22T19:01:31.087Z,27.81
2022-08-22T19:04:40.279Z,28.18
2022-08-22T19:07:57.187Z,27.63
2022-08-22T19:10:40.768Z,27.59
2022-08-22T19:13:34.552Z,27.89
2022-08-22T19:16:26.681Z,28.01
2022-08-22T19:19:02.693Z,27.84
2022-08-22T19:21:54.459Z,27.63
2022-08-22T19:24:27.430Z,27.60
2022-08-22T19:27:07.421Z,27.21
2022-08-22T19:29:34.268Z,27.41
2022-08-22T19:32:05.929Z,26.61
2022-08-22T19:34:39.821Z,26.36
2022-08-22T19:37:33.360Z,26.90
2022-08-22T19:40:10.569Z,26.57
2022-08-22T19:42:43.201Z,26.17
2022-08-22T19:45:28.714Z,25.46
2022-08-22T19:48:13.968Z,25.67
2022-08-22T19:50:43.217Z,26.04
2022-08-22T19:53:46.735Z,26.15
2022-08-22T19:57:01.013Z,25.69
2022-08-22T20:00:00.015Z,25.05
2022-08-22T20:02:39.180Z,25.97
2022-08-22T20:05:35.959Z,25.79
2022-08-22T20:08:27.775Z,25.50
2022-08-22T20:11:52.767Z,25.43
2022-08-22T20:14:31.139Z,25.40
2022-08-22T20:17:10.533Z,25.77
2022-08-22T20:22:45.359Z,25.55
2022-08-22T20:25:49.327Z,25.17
2022-08-22T20:28:48.988Z,25.09
2022-08-22T20:31:27.497Z,24.76
2022-08-22T20:34:21.664Z,23.99
2022-08-22T20:36:59.748Z,24.17
2022-08-22T20:39:58.508Z,24.32
2022-08-22T20:42:30.594Z,24.06
2022-08-22T20:44:59.838Z,24.42
2022-08-22T20:47:32.309Z,25.03
2022-08-22T20:50:12.189Z,24.86
2022-08-22T20:52:51.784Z,24.73
2022-08-22T20:55:27.929Z,24.67
2022-08-22T20:58:18.378Z,24.64
2022-08-22T21:00:48.883Z,24.67
2022-08-22T21:03:44.536Z,24.90
2022-08-22T21:06:28.158Z,24.70
2022-08-22T21:09:40.276Z,24.72
2022-08-22T21:12:09.420Z,23.49
2022-08-22T21:14:46.190Z,23.28
2022-08-22T21:17:27.465Z,23.84
2022-08-22T21:20:14.765Z,24.75
2022-08-22T21:22:42.223Z,24.61
2022-08-22T21:25:09.703Z,24.69
2022-08-22T21:27:37.253Z,24.86
2022-08-22T21:30:09.402Z,24.21
2022-08-22T21:32:42.863Z,23.76
2022-08-22T21:35:32.102Z,24.29
2022-08-22T21:38:01.485Z,24.33
2022-08-22T21:40:36.954Z,24.94
2022-08-22T21:43:14.009Z,24.69
2022-08-22T21:45:44.405Z,25.05
2022-08-22T21:48:40.058Z,24.64
2022-08-22T21:51:36.493Z,24.78
2022-08-22T21:54:25.624Z,24.68
2022-08-22T21:57:00.263Z,24.83
2022-08-22T21:59:51.168Z,23.79
2022-08-22T22:02:42.137Z,23.65
2022-08-22T22:05:17.743Z,24.05
2022-08-22T22:07:47.547Z,24.23
2022-08-22T22:10:19.360Z,24.04
2022-08-22T22:12:49.419Z,23.70
2022-08-22T22:15:22.071Z,23.86
2022-08-22T22:17:49.888Z,23.35
2022-08-22T22:20:19.778Z,24.03
2022-08-22T22:22:47.540Z,24.53
2022-08-22T22:25:39.151Z,24.34
2022-08-22T22:28:15.953Z,24.00
2022-08-22T22:30:45.114Z,23.65
2022-08-22T22:33:12.444Z,23.84
2022-08-22T22:35:40.743Z,23.98
2022-08-22T22:38:08.332Z,23.55
2022-08-22T22:40:36.146Z,23.57
2022-08-22T22:43:03.862Z,23.64
2022-08-22T22:45:31.151Z,23.83
2022-08-22T22:47:58.515Z,24.29
2022-08-22T22:50:25.836Z,24.10
2022-08-22T22:52:54.165Z,24.18
2022-08-22T22:55:24.714Z,24.01
2022-08-22T22:57:59.231Z,23.90
2022-08-22T23:00:31.039Z,23.30
2022-08-22T23:03:00.500Z,23.29
2022-08-22T23:05:32.148Z,23.57
2022-08-22T23:08:00.012Z,24.06
2022-08-22T23:10:30.099Z,23.95
2022-08-22T23:12:57.882Z,23.95
2022-08-22T23:15:25.592Z,23.87
2022-08-22T23:17:52.689Z,23.85
2022-08-22T23:20:20.283Z,24.14
2022-08-22T23:22:47.840Z,23.62
2022-08-22T23:25:15.694Z,23.89
2022-08-22T23:27:43.467Z,24.00
2022-08-22T23:30:11.763Z,23.89
2022-08-22T23:32:39.335Z,23.89
2022-08-22T23:35:07.575Z,24.12
2022-08-22T23:37:35.446Z,23.97
2022-08-22T23:40:07.376Z,23.83
2022-08-22T23:42:34.693Z,23.96
2022-08-22T23:45:01.728Z,23.93
2022-08-22T23:47:28.983Z,23.77
2022-08-22T23:49:56.103Z,23.81
2022-08-22T23:52:23.196Z,23.79
2022-08-22T23:54:51.516Z,23.31
2022-08-22T23:57:26.264Z,23.44
2022-08-22T23:59:57.468Z,23.22
